This is the latest recevied weather packets stored in our database for station/object K4ROM-1. If no packets are shown the sender has not sent any weather packets the latest 10 day(s).
| Time | Temp. | Humidity | Pressure | Rain* | Wind** | Luminosity | Snow |
|---|---|---|---|---|---|---|---|
| 1777975803 | 10° C | 93% | 1017.1 hPa | 0 mm | 0 m/s | - | - |
| 1777975203 | 10° C | 93% | 1017 hPa | 0 mm | 0 m/s | - | - |
| 1777974603 | 10° C | 92% | 1016.9 hPa | 0 mm | 0 m/s | - | - |
| 1777974003 | 10.56° C | 90% | 1017 hPa | 0 mm | 0 m/s | - | - |
| 1777973403 | 10.56° C | 89% | 1016.9 hPa | 0 mm | 0 m/s | - | - |
| 1777972803 | 11.11° C | 88% | 1016.6 hPa | 0 mm | 0 m/s | - | - |
| 1777972203 | 10.56° C | 90% | 1016.7 hPa | 0 mm | 0 m/s | - | - |
| 1777971603 | 11.11° C | 88% | 1016.6 hPa | 0 mm | 0 m/s | - | - |
| 1777971003 | 11.67° C | 86% | 1016.5 hPa | 0 mm | 0 m/s | - | - |
| 1777970403 | 11.67° C | 85% | 1016.6 hPa | 0 mm | 0 m/s | - | - |
| 1777969804 | 11.11° C | 86% | 1016.5 hPa | 0 mm | 0 m/s | - | - |
| 1777969204 | 11.67° C | 83% | 1016.7 hPa | 0 mm | 0 m/s | - | - |
| 1777968603 | 12.22° C | 83% | 1016.4 hPa | 0 mm | 0 m/s | - | - |
| 1777968003 | 12.22° C | 82% | 1016.4 hPa | 0 mm | 0 m/s | - | - |
| 1777967403 | 12.78° C | 81% | 1016.5 hPa | 0 mm | 0 m/s | - | - |
| 1777966803 | 12.78° C | 79% | 1016.4 hPa | 0 mm | 0 m/s | - | - |
| 1777966203 | 12.78° C | 79% | 1016 hPa | 0 mm | 0 m/s | - | - |
| 1777965603 | 13.33° C | 79% | 1016 hPa | 0 mm | 0 m/s | - | - |
| 1777965003 | 13.89° C | 77% | 1016.2 hPa | 0 mm | 0 m/s | - | - |
| 1777964403 | 13.89° C | 75% | 1016 hPa | 0 mm | 0 m/s | - | - |
| 1777963803 | 14.44° C | 74% | 1016.1 hPa | 0 mm | 0 m/s | - | - |
| 1777963203 | 14.44° C | 74% | 1016.3 hPa | 0 mm | 0 m/s | - | - |
| 1777962603 | 14.44° C | 73% | 1016.4 hPa | 0 mm | 0 m/s | - | - |
| 1777962003 | 14.44° C | 73% | 1016.2 hPa | 0 mm | 0 m/s | - | - |
| 1777961403 | 15° C | 72% | 1016.2 hPa | 0 mm | 0 m/s | - | - |
* Rain latest hour (hover to see other rain measurements)
** Current wind speed in m/s (hover to see current wind gust speed)